sensor_id;sensor_type;location;lat;lon;timestamp;temperature;humidity
44990;DHT22;30723;51.206;3.326;2023-08-01T00:01:42;16.10;99.90
44990;DHT22;30723;51.206;3.326;2023-08-01T00:04:08;16.10;99.90
44990;DHT22;30723;51.206;3.326;2023-08-01T00:06:35;16.20;99.90
44990;DHT22;30723;51.206;3.326;2023-08-01T00:09:01;16.10;99.90
44990;DHT22;30723;51.206;3.326;2023-08-01T00:11:28;16.10;99.90
44990;DHT22;30723;51.206;3.326;2023-08-01T00:13:54;16.00;99.90
44990;DHT22;30723;51.206;3.326;2023-08-01T00:16:21;16.00;99.90
44990;DHT22;30723;51.206;3.326;2023-08-01T00:18:48;16.00;99.90
44990;DHT22;30723;51.206;3.326;2023-08-01T00:21:13;16.00;99.90
44990;DHT22;30723;51.206;3.326;2023-08-01T00:23:40;16.00;99.90
44990;DHT22;30723;51.206;3.326;2023-08-01T00:26:07;16.00;99.90
44990;DHT22;30723;51.206;3.326;2023-08-01T00:28:36;16.00;99.90
44990;DHT22;30723;51.206;3.326;2023-08-01T00:31:06;15.90;99.90
44990;DHT22;30723;51.206;3.326;2023-08-01T00:33:34;16.00;99.90
44990;DHT22;30723;51.206;3.326;2023-08-01T00:36:01;16.00;99.90
44990;DHT22;30723;51.206;3.326;2023-08-01T00:38:28;16.00;99.90
44990;DHT22;30723;51.206;3.326;2023-08-01T00:40:54;16.10;99.90
44990;DHT22;30723;51.206;3.326;2023-08-01T00:43:20;16.00;99.90
44990;DHT22;30723;51.206;3.326;2023-08-01T00:45:46;16.10;99.90
44990;DHT22;30723;51.206;3.326;2023-08-01T00:48:12;16.00;99.90
44990;DHT22;30723;51.206;3.326;2023-08-01T00:50:39;16.10;99.90
44990;DHT22;30723;51.206;3.326;2023-08-01T00:53:06;16.00;99.90
44990;DHT22;30723;51.206;3.326;2023-08-01T00:55:32;16.10;99.90
44990;DHT22;30723;51.206;3.326;2023-08-01T00:58:01;16.00;99.90
44990;DHT22;30723;51.206;3.326;2023-08-01T01:00:28;16.00;99.90
44990;DHT22;30723;51.206;3.326;2023-08-01T01:02:55;16.10;99.90
44990;DHT22;30723;51.206;3.326;2023-08-01T01:05:22;16.10;99.90
44990;DHT22;30723;51.206;3.326;2023-08-01T01:07:49;16.10;99.90
44990;DHT22;30723;51.206;3.326;2023-08-01T01:10:16;16.10;99.90
44990;DHT22;30723;51.206;3.326;2023-08-01T01:12:43;16.00;99.90
44990;DHT22;30723;51.206;3.326;2023-08-01T01:15:10;15.90;99.90
44990;DHT22;30723;51.206;3.326;2023-08-01T01:17:36;15.90;99.90
44990;DHT22;30723;51.206;3.326;2023-08-01T01:20:02;16.00;99.90
44990;DHT22;30723;51.206;3.326;2023-08-01T01:22:29;15.90;99.90
44990;DHT22;30723;51.206;3.326;2023-08-01T01:24:56;15.90;99.90
44990;DHT22;30723;51.206;3.326;2023-08-01T01:27:23;15.90;99.90
44990;DHT22;30723;51.206;3.326;2023-08-01T01:29:51;16.00;99.90
44990;DHT22;30723;51.206;3.326;2023-08-01T01:32:19;16.00;99.90
44990;DHT22;30723;51.206;3.326;2023-08-01T01:34:46;16.00;99.90
44990;DHT22;30723;51.206;3.326;2023-08-01T01:37:13;16.00;99.90
44990;DHT22;30723;51.206;3.326;2023-08-01T01:39:39;16.00;99.90
44990;DHT22;30723;51.206;3.326;2023-08-01T01:42:07;16.00;99.90
44990;DHT22;30723;51.206;3.326;2023-08-01T01:44:34;16.10;99.90
44990;DHT22;30723;51.206;3.326;2023-08-01T01:47:01;16.00;99.90
44990;DHT22;30723;51.206;3.326;2023-08-01T01:49:27;16.00;99.90
44990;DHT22;30723;51.206;3.326;2023-08-01T01:51:56;16.10;99.90
44990;DHT22;30723;51.206;3.326;2023-08-01T01:54:22;16.10;99.90
44990;DHT22;30723;51.206;3.326;2023-08-01T01:56:49;16.10;99.90
44990;DHT22;30723;51.206;3.326;2023-08-01T01:59:17;16.20;99.90
44990;DHT22;30723;51.206;3.326;2023-08-01T02:01:43;16.20;99.90
44990;DHT22;30723;51.206;3.326;2023-08-01T02:04:09;16.20;99.90
44990;DHT22;30723;51.206;3.326;2023-08-01T02:06:35;16.20;99.90
44990;DHT22;30723;51.206;3.326;2023-08-01T02:09:02;16.10;99.90
44990;DHT22;30723;51.206;3.326;2023-08-01T02:11:30;16.10;99.90
44990;DHT22;30723;51.206;3.326;2023-08-01T02:13:57;16.20;99.90
44990;DHT22;30723;51.206;3.326;2023-08-01T02:16:24;16.30;99.90
44990;DHT22;30723;51.206;3.326;2023-08-01T02:18:58;16.20;99.90
44990;DHT22;30723;51.206;3.326;2023-08-01T02:21:24;16.20;99.90
44990;DHT22;30723;51.206;3.326;2023-08-01T02:23:51;16.20;99.90
44990;DHT22;30723;51.206;3.326;2023-08-01T02:26:18;16.20;99.90
44990;DHT22;30723;51.206;3.326;2023-08-01T02:28:45;16.20;99.90
44990;DHT22;30723;51.206;3.326;2023-08-01T02:31:11;16.10;99.90
44990;DHT22;30723;51.206;3.326;2023-08-01T02:33:37;16.00;99.90
44990;DHT22;30723;51.206;3.326;2023-08-01T02:36:05;16.00;99.90
44990;DHT22;30723;51.206;3.326;2023-08-01T02:38:31;16.10;99.90
44990;DHT22;30723;51.206;3.326;2023-08-01T02:40:58;16.10;99.90
44990;DHT22;30723;51.206;3.326;2023-08-01T02:43:23;16.00;99.90
44990;DHT22;30723;51.206;3.326;2023-08-01T02:45:49;16.10;99.90
44990;DHT22;30723;51.206;3.326;2023-08-01T02:48:16;16.10;99.90
44990;DHT22;30723;51.206;3.326;2023-08-01T02:50:42;16.10;99.90
44990;DHT22;30723;51.206;3.326;2023-08-01T02:53:08;16.10;99.90
44990;DHT22;30723;51.206;3.326;2023-08-01T02:55:34;16.00;99.90
44990;DHT22;30723;51.206;3.326;2023-08-01T02:58:01;16.10;99.90
44990;DHT22;30723;51.206;3.326;2023-08-01T03:00:28;16.20;99.90
44990;DHT22;30723;51.206;3.326;2023-08-01T03:02:53;16.20;99.90
44990;DHT22;30723;51.206;3.326;2023-08-01T03:05:19;16.20;99.90
44990;DHT22;30723;51.206;3.326;2023-08-01T03:07:45;16.10;99.90
44990;DHT22;30723;51.206;3.326;2023-08-01T03:10:12;16.20;99.90
44990;DHT22;30723;51.206;3.326;2023-08-01T03:12:38;16.20;99.90
44990;DHT22;30723;51.206;3.326;2023-08-01T03:15:06;16.30;99.90
44990;DHT22;30723;51.206;3.326;2023-08-01T03:17:34;16.20;99.90
44990;DHT22;30723;51.206;3.326;2023-08-01T03:20:01;16.20;99.90
44990;DHT22;30723;51.206;3.326;2023-08-01T03:22:28;16.10;99.90
44990;DHT22;30723;51.206;3.326;2023-08-01T03:24:54;16.10;99.90
44990;DHT22;30723;51.206;3.326;2023-08-01T03:27:20;16.10;99.90
44990;DHT22;30723;51.206;3.326;2023-08-01T03:29:47;16.20;99.90
44990;DHT22;30723;51.206;3.326;2023-08-01T03:32:22;16.20;99.90
44990;DHT22;30723;51.206;3.326;2023-08-01T03:34:49;16.30;99.90
44990;DHT22;30723;51.206;3.326;2023-08-01T03:37:16;16.30;99.90
44990;DHT22;30723;51.206;3.326;2023-08-01T03:39:43;16.30;99.90
44990;DHT22;30723;51.206;3.326;2023-08-01T03:42:10;16.30;99.90
44990;DHT22;30723;51.206;3.326;2023-08-01T03:44:36;16.20;99.90
44990;DHT22;30723;51.206;3.326;2023-08-01T03:47:04;16.30;99.90
44990;DHT22;30723;51.206;3.326;2023-08-01T03:49:30;16.30;99.90
44990;DHT22;30723;51.206;3.326;2023-08-01T03:51:56;16.40;99.90
44990;DHT22;30723;51.206;3.326;2023-08-01T03:54:23;16.40;99.90
44990;DHT22;30723;51.206;3.326;2023-08-01T03:56:50;16.40;99.90
44990;DHT22;30723;51.206;3.326;2023-08-01T03:59:17;16.40;99.90
44990;DHT22;30723;51.206;3.326;2023-08-01T04:01:44;16.40;99.90
44990;DHT22;30723;51.206;3.326;2023-08-01T04:04:10;16.40;99.90
44990;DHT22;30723;51.206;3.326;2023-08-01T04:06:36;16.50;99.90
44990;DHT22;30723;51.206;3.326;2023-08-01T04:09:02;16.50;99.90
44990;DHT22;30723;51.206;3.326;2023-08-01T04:11:28;16.50;99.90
44990;DHT22;30723;51.206;3.326;2023-08-01T04:13:56;16.50;99.90
44990;DHT22;30723;51.206;3.326;2023-08-01T04:16:23;16.50;99.90
44990;DHT22;30723;51.206;3.326;2023-08-01T04:18:50;16.50;99.90
44990;DHT22;30723;51.206;3.326;2023-08-01T04:21:16;16.50;99.90
44990;DHT22;30723;51.206;3.326;2023-08-01T04:23:43;16.50;99.90
44990;DHT22;30723;51.206;3.326;2023-08-01T04:26:09;16.60;99.90
44990;DHT22;30723;51.206;3.326;2023-08-01T04:28:36;16.60;99.90
44990;DHT22;30723;51.206;3.326;2023-08-01T04:31:03;16.60;99.90
44990;DHT22;30723;51.206;3.326;2023-08-01T04:33:30;16.60;99.90
44990;DHT22;30723;51.206;3.326;2023-08-01T04:35:55;16.70;99.90
44990;DHT22;30723;51.206;3.326;2023-08-01T04:38:21;16.70;99.90
44990;DHT22;30723;51.206;3.326;2023-08-01T04:40:47;16.70;99.90
44990;DHT22;30723;51.206;3.326;2023-08-01T04:43:14;16.70;99.90
44990;DHT22;30723;51.206;3.326;2023-08-01T04:45:41;16.70;99.90
44990;DHT22;30723;51.206;3.326;2023-08-01T04:48:08;16.70;99.90
44990;DHT22;30723;51.206;3.326;2023-08-01T04:50:35;16.60;99.90
44990;DHT22;30723;51.206;3.326;2023-08-01T04:53:01;16.70;99.90
44990;DHT22;30723;51.206;3.326;2023-08-01T04:55:28;16.80;99.90
44990;DHT22;30723;51.206;3.326;2023-08-01T04:57:55;16.80;99.90
44990;DHT22;30723;51.206;3.326;2023-08-01T05:00:22;16.90;99.90
44990;DHT22;30723;51.206;3.326;2023-08-01T05:02:48;16.90;99.90
44990;DHT22;30723;51.206;3.326;2023-08-01T05:05:15;16.90;99.90
44990;DHT22;30723;51.206;3.326;2023-08-01T05:07:42;16.90;99.90
44990;DHT22;30723;51.206;3.326;2023-08-01T05:10:08;16.80;99.90
44990;DHT22;30723;51.206;3.326;2023-08-01T05:12:34;16.80;99.90
44990;DHT22;30723;51.206;3.326;2023-08-01T05:15:00;16.70;99.90
44990;DHT22;30723;51.206;3.326;2023-08-01T05:17:25;16.80;99.90
44990;DHT22;30723;51.206;3.326;2023-08-01T05:19:52;16.70;99.90
44990;DHT22;30723;51.206;3.326;2023-08-01T05:22:19;16.70;99.90
44990;DHT22;30723;51.206;3.326;2023-08-01T05:24:44;16.80;99.90
44990;DHT22;30723;51.206;3.326;2023-08-01T05:27:10;16.90;99.90
44990;DHT22;30723;51.206;3.326;2023-08-01T05:29:37;17.00;99.90
44990;DHT22;30723;51.206;3.326;2023-08-01T05:32:04;17.10;99.90
44990;DHT22;30723;51.206;3.326;2023-08-01T05:34:31;17.00;99.90
44990;DHT22;30723;51.206;3.326;2023-08-01T05:36:58;17.00;99.90
44990;DHT22;30723;51.206;3.326;2023-08-01T05:39:25;17.00;99.90
44990;DHT22;30723;51.206;3.326;2023-08-01T05:41:59;17.00;99.90
44990;DHT22;30723;51.206;3.326;2023-08-01T05:44:25;17.00;99.90
44990;DHT22;30723;51.206;3.326;2023-08-01T05:46:51;17.10;99.90
44990;DHT22;30723;51.206;3.326;2023-08-01T05:49:17;17.10;99.90
44990;DHT22;30723;51.206;3.326;2023-08-01T05:51:43;17.10;99.90
44990;DHT22;30723;51.206;3.326;2023-08-01T05:54:10;17.20;99.90
44990;DHT22;30723;51.206;3.326;2023-08-01T05:56:37;17.20;99.90
44990;DHT22;30723;51.206;3.326;2023-08-01T05:59:03;17.20;99.90
44990;DHT22;30723;51.206;3.326;2023-08-01T06:01:30;17.10;99.90
44990;DHT22;30723;51.206;3.326;2023-08-01T06:03:56;17.10;99.90
44990;DHT22;30723;51.206;3.326;2023-08-01T06:06:23;17.10;99.90
44990;DHT22;30723;51.206;3.326;2023-08-01T06:08:49;17.10;99.90
44990;DHT22;30723;51.206;3.326;2023-08-01T06:11:18;17.10;99.90
44990;DHT22;30723;51.206;3.326;2023-08-01T06:13:45;17.20;99.90
44990;DHT22;30723;51.206;3.326;2023-08-01T06:16:12;17.30;99.90
44990;DHT22;30723;51.206;3.326;2023-08-01T06:18:39;17.40;99.90
44990;DHT22;30723;51.206;3.326;2023-08-01T06:21:05;17.50;99.90
44990;DHT22;30723;51.206;3.326;2023-08-01T06:23:30;17.60;99.90
44990;DHT22;30723;51.206;3.326;2023-08-01T06:25:56;17.70;99.90
44990;DHT22;30723;51.206;3.326;2023-08-01T06:28:23;17.70;99.90
44990;DHT22;30723;51.206;3.326;2023-08-01T06:30:49;17.90;99.90
44990;DHT22;30723;51.206;3.326;2023-08-01T06:33:16;18.10;99.90
44990;DHT22;30723;51.206;3.326;2023-08-01T06:35:42;18.40;99.90
44990;DHT22;30723;51.206;3.326;2023-08-01T06:38:09;18.60;99.90
44990;DHT22;30723;51.206;3.326;2023-08-01T06:40:36;18.70;99.90
44990;DHT22;30723;51.206;3.326;2023-08-01T06:43:02;18.80;99.90
44990;DHT22;30723;51.206;3.326;2023-08-01T06:45:29;18.80;99.90
44990;DHT22;30723;51.206;3.326;2023-08-01T06:47:56;18.70;99.90
44990;DHT22;30723;51.206;3.326;2023-08-01T06:50:22;18.70;99.90
44990;DHT22;30723;51.206;3.326;2023-08-01T06:52:47;18.50;99.90
44990;DHT22;30723;51.206;3.326;2023-08-01T06:55:13;18.50;99.90
44990;DHT22;30723;51.206;3.326;2023-08-01T06:57:39;18.50;99.90
44990;DHT22;30723;51.206;3.326;2023-08-01T07:00:06;18.60;99.90
44990;DHT22;30723;51.206;3.326;2023-08-01T07:02:32;18.80;99.90
44990;DHT22;30723;51.206;3.326;2023-08-01T07:04:57;18.80;99.90
44990;DHT22;30723;51.206;3.326;2023-08-01T07:07:23;18.60;99.90
44990;DHT22;30723;51.206;3.326;2023-08-01T07:09:49;18.60;99.90
44990;DHT22;30723;51.206;3.326;2023-08-01T07:12:16;18.40;99.90
44990;DHT22;30723;51.206;3.326;2023-08-01T07:14:42;18.20;99.90
44990;DHT22;30723;51.206;3.326;2023-08-01T07:17:08;18.10;99.90
44990;DHT22;30723;51.206;3.326;2023-08-01T07:19:34;18.00;99.90
44990;DHT22;30723;51.206;3.326;2023-08-01T07:22:00;17.80;99.90
44990;DHT22;30723;51.206;3.326;2023-08-01T07:24:27;17.70;99.90
44990;DHT22;30723;51.206;3.326;2023-08-01T07:26:54;17.60;99.90
44990;DHT22;30723;51.206;3.326;2023-08-01T07:29:21;17.60;99.90
44990;DHT22;30723;51.206;3.326;2023-08-01T07:31:56;17.70;99.90
44990;DHT22;30723;51.206;3.326;2023-08-01T07:34:22;18.00;99.90
44990;DHT22;30723;51.206;3.326;2023-08-01T07:36:49;18.30;99.90
44990;DHT22;30723;51.206;3.326;2023-08-01T07:39:16;18.60;99.90
44990;DHT22;30723;51.206;3.326;2023-08-01T07:41:41;18.50;99.90
44990;DHT22;30723;51.206;3.326;2023-08-01T07:44:08;18.10;99.90
44990;DHT22;30723;51.206;3.326;2023-08-01T07:46:34;17.60;99.90
44990;DHT22;30723;51.206;3.326;2023-08-01T07:49:01;17.50;99.90
44990;DHT22;30723;51.206;3.326;2023-08-01T07:51:28;17.30;99.90
44990;DHT22;30723;51.206;3.326;2023-08-01T07:53:56;17.40;99.90
44990;DHT22;30723;51.206;3.326;2023-08-01T07:56:22;17.70;99.90
44990;DHT22;30723;51.206;3.326;2023-08-01T07:58:48;17.90;99.90
44990;DHT22;30723;51.206;3.326;2023-08-01T08:01:15;18.40;99.90
44990;DHT22;30723;51.206;3.326;2023-08-01T08:03:41;18.30;99.90
44990;DHT22;30723;51.206;3.326;2023-08-01T08:06:08;18.20;99.90
44990;DHT22;30723;51.206;3.326;2023-08-01T08:08:35;18.40;99.90
44990;DHT22;30723;51.206;3.326;2023-08-01T08:11:03;18.70;99.90
44990;DHT22;30723;51.206;3.326;2023-08-01T08:13:30;19.30;99.90
44990;DHT22;30723;51.206;3.326;2023-08-01T08:15:56;20.00;99.90
44990;DHT22;30723;51.206;3.326;2023-08-01T08:18:24;20.70;99.90
44990;DHT22;30723;51.206;3.326;2023-08-01T08:20:50;20.90;99.90
44990;DHT22;30723;51.206;3.326;2023-08-01T08:23:17;20.60;99.90
44990;DHT22;30723;51.206;3.326;2023-08-01T08:25:45;20.30;99.90
44990;DHT22;30723;51.206;3.326;2023-08-01T08:28:14;20.50;99.90
44990;DHT22;30723;51.206;3.326;2023-08-01T08:30:41;20.30;99.90
44990;DHT22;30723;51.206;3.326;2023-08-01T08:33:07;20.70;99.90
44990;DHT22;30723;51.206;3.326;2023-08-01T08:35:35;21.00;99.90
44990;DHT22;30723;51.206;3.326;2023-08-01T08:38:02;21.50;99.90
44990;DHT22;30723;51.206;3.326;2023-08-01T08:40:34;21.80;99.90
44990;DHT22;30723;51.206;3.326;2023-08-01T08:43:02;22.20;99.90
44990;DHT22;30723;51.206;3.326;2023-08-01T08:45:35;21.90;99.90
44990;DHT22;30723;51.206;3.326;2023-08-01T08:48:04;21.10;99.90
44990;DHT22;30723;51.206;3.326;2023-08-01T08:50:33;20.40;99.90
44990;DHT22;30723;51.206;3.326;2023-08-01T08:52:59;20.70;99.90
44990;DHT22;30723;51.206;3.326;2023-08-01T08:55:27;21.30;99.90
44990;DHT22;30723;51.206;3.326;2023-08-01T08:57:55;21.70;99.90
44990;DHT22;30723;51.206;3.326;2023-08-01T09:00:23;21.60;99.90
44990;DHT22;30723;51.206;3.326;2023-08-01T09:02:50;21.60;99.90
44990;DHT22;30723;51.206;3.326;2023-08-01T09:05:17;21.10;99.90
44990;DHT22;30723;51.206;3.326;2023-08-01T09:07:46;21.50;99.90
44990;DHT22;30723;51.206;3.326;2023-08-01T09:10:14;21.70;99.90
44990;DHT22;30723;51.206;3.326;2023-08-01T09:12:41;21.70;99.90
44990;DHT22;30723;51.206;3.326;2023-08-01T09:15:09;21.20;99.90
44990;DHT22;30723;51.206;3.326;2023-08-01T09:17:46;21.10;99.90
44990;DHT22;30723;51.206;3.326;2023-08-01T09:20:13;20.90;99.90
44990;DHT22;30723;51.206;3.326;2023-08-01T09:22:47;20.80;99.90
44990;DHT22;30723;51.206;3.326;2023-08-01T09:25:17;20.70;99.90
44990;DHT22;30723;51.206;3.326;2023-08-01T09:27:44;20.60;99.90
44990;DHT22;30723;51.206;3.326;2023-08-01T09:30:13;20.60;99.90
44990;DHT22;30723;51.206;3.326;2023-08-01T09:32:52;20.50;99.90
44990;DHT22;30723;51.206;3.326;2023-08-01T09:35:20;20.60;99.90
44990;DHT22;30723;51.206;3.326;2023-08-01T09:37:48;21.10;99.90
44990;DHT22;30723;51.206;3.326;2023-08-01T09:40:15;20.90;99.90
44990;DHT22;30723;51.206;3.326;2023-08-01T09:42:43;21.40;99.90
44990;DHT22;30723;51.206;3.326;2023-08-01T09:45:16;21.60;99.90
44990;DHT22;30723;51.206;3.326;2023-08-01T09:47:45;21.70;99.90
44990;DHT22;30723;51.206;3.326;2023-08-01T09:50:20;22.30;99.90
44990;DHT22;30723;51.206;3.326;2023-08-01T09:52:47;22.50;99.90
44990;DHT22;30723;51.206;3.326;2023-08-01T09:55:41;23.00;99.90
44990;DHT22;30723;51.206;3.326;2023-08-01T09:58:10;23.30;99.90
44990;DHT22;30723;51.206;3.326;2023-08-01T10:00:38;23.00;99.90
44990;DHT22;30723;51.206;3.326;2023-08-01T10:03:04;22.50;99.90
44990;DHT22;30723;51.206;3.326;2023-08-01T10:05:32;22.00;99.90
44990;DHT22;30723;51.206;3.326;2023-08-01T10:08:02;21.50;99.90
44990;DHT22;30723;51.206;3.326;2023-08-01T10:10:28;21.30;99.90
44990;DHT22;30723;51.206;3.326;2023-08-01T10:12:56;21.30;99.90
44990;DHT22;30723;51.206;3.326;2023-08-01T10:15:24;21.40;99.90
44990;DHT22;30723;51.206;3.326;2023-08-01T10:17:51;21.50;99.90
44990;DHT22;30723;51.206;3.326;2023-08-01T10:20:18;21.50;99.90
44990;DHT22;30723;51.206;3.326;2023-08-01T10:22:49;21.50;99.90
44990;DHT22;30723;51.206;3.326;2023-08-01T10:25:17;21.40;99.90
44990;DHT22;30723;51.206;3.326;2023-08-01T10:27:45;21.50;99.90
44990;DHT22;30723;51.206;3.326;2023-08-01T10:30:12;21.40;99.90
44990;DHT22;30723;51.206;3.326;2023-08-01T10:32:39;21.30;99.90
44990;DHT22;30723;51.206;3.326;2023-08-01T10:35:08;21.50;99.90
44990;DHT22;30723;51.206;3.326;2023-08-01T10:37:45;21.60;99.90
44990;DHT22;30723;51.206;3.326;2023-08-01T10:40:14;22.00;99.90
44990;DHT22;30723;51.206;3.326;2023-08-01T10:42:45;22.50;99.90
44990;DHT22;30723;51.206;3.326;2023-08-01T10:45:22;23.20;99.90
44990;DHT22;30723;51.206;3.326;2023-08-01T10:47:50;23.30;99.90
44990;DHT22;30723;51.206;3.326;2023-08-01T10:50:18;23.20;99.90
44990;DHT22;30723;51.206;3.326;2023-08-01T10:52:45;22.90;99.90
44990;DHT22;30723;51.206;3.326;2023-08-01T10:55:13;22.60;99.90
44990;DHT22;30723;51.206;3.326;2023-08-01T10:57:47;23.40;99.90
44990;DHT22;30723;51.206;3.326;2023-08-01T11:00:19;24.20;99.90
44990;DHT22;30723;51.206;3.326;2023-08-01T11:02:50;25.20;99.90
44990;DHT22;30723;51.206;3.326;2023-08-01T11:05:19;25.80;99.90
44990;DHT22;30723;51.206;3.326;2023-08-01T11:07:57;26.20;99.90
44990;DHT22;30723;51.206;3.326;2023-08-01T11:10:28;26.90;99.90
44990;DHT22;30723;51.206;3.326;2023-08-01T11:12:55;26.60;99.90
44990;DHT22;30723;51.206;3.326;2023-08-01T11:15:22;25.80;99.90
44990;DHT22;30723;51.206;3.326;2023-08-01T11:17:51;25.50;99.90
44990;DHT22;30723;51.206;3.326;2023-08-01T11:20:19;25.60;99.90
44990;DHT22;30723;51.206;3.326;2023-08-01T11:25:18;24.90;99.90
44990;DHT22;30723;51.206;3.326;2023-08-01T11:27:45;25.30;99.90
44990;DHT22;30723;51.206;3.326;2023-08-01T11:30:13;26.00;99.90
44990;DHT22;30723;51.206;3.326;2023-08-01T11:32:40;26.40;99.90
44990;DHT22;30723;51.206;3.326;2023-08-01T11:35:08;27.00;99.90
44990;DHT22;30723;51.206;3.326;2023-08-01T11:37:35;26.60;99.90
44990;DHT22;30723;51.206;3.326;2023-08-01T11:40:02;25.20;99.90
44990;DHT22;30723;51.206;3.326;2023-08-01T11:42:32;24.60;99.90
44990;DHT22;30723;51.206;3.326;2023-08-01T11:45:28;24.40;99.90
44990;DHT22;30723;51.206;3.326;2023-08-01T11:47:55;23.70;99.90
44990;DHT22;30723;51.206;3.326;2023-08-01T11:50:22;23.60;99.90
44990;DHT22;30723;51.206;3.326;2023-08-01T11:52:52;23.40;99.90
44990;DHT22;30723;51.206;3.326;2023-08-01T11:55:20;23.30;99.90
44990;DHT22;30723;51.206;3.326;2023-08-01T11:58:06;23.10;99.90
44990;DHT22;30723;51.206;3.326;2023-08-01T12:00:33;23.00;99.90
44990;DHT22;30723;51.206;3.326;2023-08-01T12:03:06;23.00;99.90
44990;DHT22;30723;51.206;3.326;2023-08-01T12:05:33;23.70;99.90
44990;DHT22;30723;51.206;3.326;2023-08-01T12:08:31;23.80;99.90
44990;DHT22;30723;51.206;3.326;2023-08-01T12:10:58;24.60;99.90
44990;DHT22;30723;51.206;3.326;2023-08-01T12:13:25;24.70;99.90
44990;DHT22;30723;51.206;3.326;2023-08-01T12:15:54;24.50;99.90
44990;DHT22;30723;51.206;3.326;2023-08-01T12:18:29;24.90;99.90
44990;DHT22;30723;51.206;3.326;2023-08-01T12:20:56;25.60;99.90
44990;DHT22;30723;51.206;3.326;2023-08-01T12:23:23;26.10;99.90
44990;DHT22;30723;51.206;3.326;2023-08-01T12:25:49;25.70;99.90
44990;DHT22;30723;51.206;3.326;2023-08-01T12:28:16;24.60;99.90
44990;DHT22;30723;51.206;3.326;2023-08-01T12:30:43;23.80;99.90
44990;DHT22;30723;51.206;3.326;2023-08-01T12:33:10;23.10;99.90
44990;DHT22;30723;51.206;3.326;2023-08-01T12:35:40;23.50;99.90
44990;DHT22;30723;51.206;3.326;2023-08-01T12:38:08;23.60;99.90
44990;DHT22;30723;51.206;3.326;2023-08-01T12:40:35;23.60;99.90
44990;DHT22;30723;51.206;3.326;2023-08-01T12:43:03;24.00;99.90
44990;DHT22;30723;51.206;3.326;2023-08-01T12:45:29;23.80;99.90
44990;DHT22;30723;51.206;3.326;2023-08-01T12:47:56;24.00;99.90
44990;DHT22;30723;51.206;3.326;2023-08-01T12:50:23;24.40;99.90
44990;DHT22;30723;51.206;3.326;2023-08-01T12:52:49;25.10;99.90
44990;DHT22;30723;51.206;3.326;2023-08-01T12:55:16;25.40;99.90
44990;DHT22;30723;51.206;3.326;2023-08-01T12:57:42;25.50;99.90
44990;DHT22;30723;51.206;3.326;2023-08-01T13:00:10;24.90;99.90
44990;DHT22;30723;51.206;3.326;2023-08-01T13:02:37;24.70;99.90
44990;DHT22;30723;51.206;3.326;2023-08-01T13:05:06;24.50;99.90
44990;DHT22;30723;51.206;3.326;2023-08-01T13:07:33;24.10;99.90
44990;DHT22;30723;51.206;3.326;2023-08-01T13:10:01;23.70;99.90
44990;DHT22;30723;51.206;3.326;2023-08-01T13:12:29;23.30;99.90
44990;DHT22;30723;51.206;3.326;2023-08-01T13:14:55;23.10;99.90
44990;DHT22;30723;51.206;3.326;2023-08-01T13:17:22;22.50;99.90
44990;DHT22;30723;51.206;3.326;2023-08-01T13:19:48;21.90;99.90
44990;DHT22;30723;51.206;3.326;2023-08-01T13:22:14;21.90;99.90
44990;DHT22;30723;51.206;3.326;2023-08-01T13:24:41;21.80;99.90
44990;DHT22;30723;51.206;3.326;2023-08-01T13:27:08;21.90;99.90
44990;DHT22;30723;51.206;3.326;2023-08-01T13:29:36;21.80;99.90
44990;DHT22;30723;51.206;3.326;2023-08-01T13:32:04;21.80;99.90
44990;DHT22;30723;51.206;3.326;2023-08-01T13:34:30;21.50;99.90
44990;DHT22;30723;51.206;3.326;2023-08-01T13:36:57;21.30;99.90
44990;DHT22;30723;51.206;3.326;2023-08-01T13:39:24;21.40;99.90
44990;DHT22;30723;51.206;3.326;2023-08-01T13:41:50;21.30;99.90
44990;DHT22;30723;51.206;3.326;2023-08-01T13:44:17;21.40;99.90
44990;DHT22;30723;51.206;3.326;2023-08-01T13:46:44;21.60;99.90
44990;DHT22;30723;51.206;3.326;2023-08-01T13:49:12;21.70;99.90
44990;DHT22;30723;51.206;3.326;2023-08-01T13:51:39;21.60;99.90
44990;DHT22;30723;51.206;3.326;2023-08-01T13:54:06;21.60;99.90
44990;DHT22;30723;51.206;3.326;2023-08-01T13:56:33;21.50;99.90
44990;DHT22;30723;51.206;3.326;2023-08-01T13:59:00;21.70;99.90
44990;DHT22;30723;51.206;3.326;2023-08-01T14:01:27;22.20;99.90
44990;DHT22;30723;51.206;3.326;2023-08-01T14:03:52;22.60;99.90
44990;DHT22;30723;51.206;3.326;2023-08-01T14:06:19;22.40;99.90
44990;DHT22;30723;51.206;3.326;2023-08-01T14:08:46;22.30;99.90
44990;DHT22;30723;51.206;3.326;2023-08-01T14:11:12;22.20;99.90
44990;DHT22;30723;51.206;3.326;2023-08-01T14:13:39;22.10;99.90
44990;DHT22;30723;51.206;3.326;2023-08-01T14:16:06;22.20;99.90
44990;DHT22;30723;51.206;3.326;2023-08-01T14:18:33;22.00;99.90
44990;DHT22;30723;51.206;3.326;2023-08-01T14:21:00;21.80;99.90
44990;DHT22;30723;51.206;3.326;2023-08-01T14:23:26;21.80;99.90
44990;DHT22;30723;51.206;3.326;2023-08-01T14:25:53;22.10;99.90
44990;DHT22;30723;51.206;3.326;2023-08-01T14:28:20;22.10;99.90
44990;DHT22;30723;51.206;3.326;2023-08-01T14:30:46;22.40;99.90
44990;DHT22;30723;51.206;3.326;2023-08-01T14:33:13;22.70;99.90
44990;DHT22;30723;51.206;3.326;2023-08-01T14:35:41;22.80;99.90
44990;DHT22;30723;51.206;3.326;2023-08-01T14:38:09;22.70;99.90
44990;DHT22;30723;51.206;3.326;2023-08-01T14:40:36;22.50;99.90
44990;DHT22;30723;51.206;3.326;2023-08-01T14:43:05;22.30;99.90
44990;DHT22;30723;51.206;3.326;2023-08-01T14:45:32;22.20;99.90
44990;DHT22;30723;51.206;3.326;2023-08-01T14:47:58;22.30;99.90
44990;DHT22;30723;51.206;3.326;2023-08-01T14:50:25;22.30;99.90
44990;DHT22;30723;51.206;3.326;2023-08-01T14:52:52;22.40;99.90
44990;DHT22;30723;51.206;3.326;2023-08-01T14:55:19;22.80;99.90
44990;DHT22;30723;51.206;3.326;2023-08-01T14:57:46;23.40;99.90
44990;DHT22;30723;51.206;3.326;2023-08-01T15:00:15;23.80;99.90
44990;DHT22;30723;51.206;3.326;2023-08-01T15:02:42;24.00;99.90
44990;DHT22;30723;51.206;3.326;2023-08-01T15:05:11;24.30;99.90
44990;DHT22;30723;51.206;3.326;2023-08-01T15:07:37;24.70;99.90
44990;DHT22;30723;51.206;3.326;2023-08-01T15:10:05;25.10;99.90
44990;DHT22;30723;51.206;3.326;2023-08-01T15:12:32;24.40;99.90
44990;DHT22;30723;51.206;3.326;2023-08-01T15:14:59;24.10;99.90
44990;DHT22;30723;51.206;3.326;2023-08-01T15:17:26;23.70;99.90
44990;DHT22;30723;51.206;3.326;2023-08-01T15:19:52;23.30;99.90
44990;DHT22;30723;51.206;3.326;2023-08-01T15:22:20;23.10;99.90
44990;DHT22;30723;51.206;3.326;2023-08-01T15:24:47;22.70;99.90
44990;DHT22;30723;51.206;3.326;2023-08-01T15:27:14;22.50;99.90
44990;DHT22;30723;51.206;3.326;2023-08-01T15:29:41;23.10;99.90
44990;DHT22;30723;51.206;3.326;2023-08-01T15:32:09;22.90;99.90
44990;DHT22;30723;51.206;3.326;2023-08-01T15:34:35;22.90;99.90